Time;durP1;ratioP1;P1;durP2;ratioP2;P2;SDS_P1;SDS_P2;PMS_P1;PMS_P2;Temp;Humidity;BMP_temperature;BMP_pressure;BME280_temperature;BME280_humidity;BME280_pressure;Samples;Min_cycle;Max_cycle;Signal;HPM_P1;HPM_P2
2022/09/28 00:01:21;;;;;;;30.10;16.60;;;9.20;99.90;;;;;;4363882;28;658055;-86
2022/09/28 00:04:08;;;;;;;37.87;16.97;;;9.20;99.90;;;;;;4377027;28;658024;-86
2022/09/28 00:06:56;;;;;;;32.23;16.30;;;9.20;99.90;;;;;;4342337;28;657585;-86
2022/09/28 00:09:44;;;;;;;34.43;16.93;;;9.10;99.90;;;;;;4372320;28;657743;-85
2022/09/28 00:12:31;;;;;;;34.10;18.93;;;9.00;99.90;;;;;;4342390;28;657757;-86
2022/09/28 00:15:18;;;;;;;38.73;17.57;;;8.90;99.90;;;;;;4369173;28;657986;-85
2022/09/28 00:18:05;;;;;;;44.43;18.87;;;8.90;99.90;;;;;;4361124;28;657537;-86
2022/09/28 00:21:00;;;;;;;36.60;18.70;;;8.90;99.90;;;;;;4371303;28;658483;-86
2022/09/28 00:26:56;;;;;;;34.00;17.70;;;8.90;99.90;;;;;;4362777;28;657537;-86
2022/09/28 00:29:44;;;;;;;36.23;18.53;;;8.90;99.90;;;;;;4364003;28;657874;-86
2022/09/28 00:32:34;;;;;;;34.27;19.00;;;8.90;99.90;;;;;;4347852;28;657734;-86
2022/09/28 00:35:25;;;;;;;31.45;17.48;;;8.90;99.90;;;;;;4354339;28;657760;-86
2022/09/28 00:38:16;;;;;;;33.20;17.77;;;8.90;99.90;;;;;;4350911;28;658434;-85
2022/09/28 00:41:07;;;;;;;33.77;18.50;;;9.10;99.90;;;;;;4352179;28;658195;-86
2022/09/28 00:44:16;;;;;;;33.03;18.60;;;9.00;99.90;;;;;;4348440;28;658169;-86
2022/09/28 00:47:08;;;;;;;38.93;18.23;;;9.00;99.90;;;;;;4350484;28;658401;-86
2022/09/28 00:49:58;;;;;;;36.43;18.97;;;9.00;99.90;;;;;;4345859;28;658002;-86
2022/09/28 00:52:52;;;;;;;31.33;18.70;;;9.00;99.90;;;;;;4340089;28;657826;-86
2022/09/28 00:55:42;;;;;;;36.57;22.17;;;9.00;99.90;;;;;;4329401;28;657752;-86
2022/09/28 00:58:35;;;;;;;33.80;20.27;;;8.90;99.90;;;;;;4370469;28;657669;-86
2022/09/28 01:01:26;;;;;;;47.03;24.63;;;9.10;99.90;;;;;;4339662;28;658510;-86
2022/09/28 01:04:13;;;;;;;45.33;25.77;;;9.00;99.90;;;;;;4347341;28;658672;-86
2022/09/28 01:07:04;;;;;;;47.70;26.07;;;9.10;99.90;;;;;;4325412;28;657475;-86
2022/09/28 01:09:52;;;;;;;48.72;26.38;;;9.20;99.90;;;;;;4328343;28;657213;-86
2022/09/28 01:12:40;;;;;;;51.37;27.83;;;9.20;99.90;;;;;;4352227;28;657581;-86
2022/09/28 01:15:29;;;;;;;50.88;28.60;;;9.10;99.90;;;;;;4355187;28;657930;-86
2022/09/28 01:18:18;;;;;;;48.33;28.30;;;9.20;99.90;;;;;;4322105;28;658033;-86
2022/09/28 01:21:06;;;;;;;51.60;27.60;;;9.20;99.90;;;;;;4317750;28;658138;-86
2022/09/28 01:24:14;;;;;;;51.47;28.93;;;9.20;99.90;;;;;;4360977;28;657913;-86
2022/09/28 01:27:06;;;;;;;51.53;29.47;;;9.20;99.90;;;;;;4341353;28;657584;-85
2022/09/28 01:29:56;;;;;;;47.67;27.13;;;9.20;99.90;;;;;;4342242;28;658383;-86
2022/09/28 01:32:47;;;;;;;49.57;27.60;;;9.20;99.90;;;;;;4327368;28;657472;-85
2022/09/28 01:35:36;;;;;;;40.30;21.60;;;9.20;99.90;;;;;;4332577;28;657907;-86
2022/09/28 01:38:25;;;;;;;40.00;21.80;;;9.20;99.90;;;;;;4328893;28;657935;-85
2022/09/28 01:41:12;;;;;;;35.70;19.97;;;9.10;99.90;;;;;;4332315;28;659068;-85
2022/09/28 01:44:01;;;;;;;35.27;20.57;;;9.10;99.90;;;;;;4361218;28;657936;-86
2022/09/28 01:46:49;;;;;;;33.87;19.70;;;9.10;99.90;;;;;;4328023;28;657340;-85
2022/09/28 01:49:39;;;;;;;15.17;8.90;;;9.10;99.90;;;;;;4342671;28;657692;-86
2022/09/28 01:52:27;;;;;;;24.17;15.60;;;9.10;99.90;;;;;;4344641;28;656675;-86
2022/09/28 01:55:19;;;;;;;28.37;15.80;;;9.00;99.90;;;;;;4358296;28;658479;-85
2022/09/28 01:58:08;;;;;;;25.53;14.30;;;9.00;99.90;;;;;;4336652;28;658275;-85
2022/09/28 02:01:00;;;;;;;20.93;11.87;;;8.90;99.90;;;;;;4330213;28;657565;-85
2022/09/28 02:03:48;;;;;;;18.67;11.90;;;9.00;99.90;;;;;;4331722;28;658172;-85
2022/09/28 02:06:37;;;;;;;24.37;13.90;;;8.90;99.90;;;;;;4338623;28;657553;-85
2022/09/28 02:09:26;;;;;;;22.30;13.57;;;8.80;99.90;;;;;;4361817;28;657588;-85
2022/09/28 02:12:15;;;;;;;20.90;12.97;;;8.80;99.90;;;;;;4331480;28;657371;-86
2022/09/28 02:15:09;;;;;;;19.00;11.93;;;8.70;99.90;;;;;;4343234;28;657827;-85
2022/09/28 02:17:58;;;;;;;21.77;12.40;;;8.60;99.90;;;;;;4329683;28;657508;-85
2022/09/28 02:20:47;;;;;;;20.00;12.07;;;8.50;99.90;;;;;;4338344;28;658711;-85
2022/09/28 02:23:35;;;;;;;18.13;12.70;;;8.50;99.90;;;;;;4364242;28;657218;-85
2022/09/28 02:26:23;;;;;;;12.27;7.10;;;8.40;99.90;;;;;;4341990;28;658109;-86
2022/09/28 02:29:11;;;;;;;16.70;10.43;;;8.40;99.90;;;;;;4341532;28;656920;-86
2022/09/28 02:31:58;;;;;;;16.93;10.87;;;8.30;99.90;;;;;;4368290;28;658645;-88
2022/09/28 02:34:47;;;;;;;14.60;10.07;;;8.30;99.90;;;;;;4339949;28;657800;-87
2022/09/28 02:37:34;;;;;;;13.90;9.17;;;8.20;99.90;;;;;;4354676;28;657653;-88
2022/09/28 02:40:23;;;;;;;13.03;9.27;;;8.10;99.90;;;;;;4347199;28;656524;-87
2022/09/28 02:43:14;;;;;;;15.57;8.43;;;8.10;99.90;;;;;;4350953;28;656824;-85
2022/09/28 02:46:04;;;;;;;12.27;8.00;;;7.90;99.90;;;;;;4334657;28;656680;-85
2022/09/28 02:48:58;;;;;;;12.70;7.07;;;7.80;99.90;;;;;;4321737;28;656816;-86
2022/09/28 02:51:52;;;;;;;11.27;6.77;;;7.70;99.90;;;;;;4318684;28;657208;-85
2022/09/28 02:54:54;;;;;;;11.35;6.70;;;7.60;99.90;;;;;;4327087;28;656921;-86
2022/09/28 02:57:48;;;;;;;12.60;8.17;;;7.50;99.90;;;;;;4344281;28;656246;-87
2022/09/28 03:00:37;;;;;;;16.27;9.10;;;7.50;99.90;;;;;;4341766;28;656850;-86
2022/09/28 03:03:29;;;;;;;13.07;8.37;;;7.40;99.90;;;;;;4373936;28;656614;-86
2022/09/28 03:06:19;;;;;;;18.00;10.20;;;7.40;99.90;;;;;;4350806;28;657660;-85
2022/09/28 03:09:09;;;;;;;15.77;9.80;;;7.40;99.90;;;;;;4335925;28;657512;-86
2022/09/28 03:11:58;;;;;;;17.10;10.13;;;7.20;99.90;;;;;;4349894;28;656512;-86
2022/09/28 03:14:45;;;;;;;17.10;10.07;;;7.20;99.90;;;;;;4364378;28;657516;-86
2022/09/28 03:17:32;;;;;;;16.70;10.07;;;7.10;99.90;;;;;;4377128;28;658020;-86
2022/09/28 03:20:19;;;;;;;14.87;9.50;;;7.00;99.90;;;;;;4377419;28;657725;-85
2022/09/28 03:23:06;;;;;;;15.33;8.97;;;6.90;99.90;;;;;;4353340;28;656679;-85
2022/09/28 03:25:55;;;;;;;20.53;10.53;;;6.80;99.90;;;;;;4374104;28;657484;-86
2022/09/28 03:28:42;;;;;;;18.60;8.70;;;6.80;99.90;;;;;;4355079;28;657994;-86
2022/09/28 03:31:30;;;;;;;15.67;9.50;;;6.80;99.90;;;;;;4355035;28;656729;-85
2022/09/28 03:34:17;;;;;;;17.83;8.98;;;6.70;99.90;;;;;;4359079;28;656336;-85
2022/09/28 03:37:04;;;;;;;18.37;8.33;;;6.60;99.90;;;;;;4358818;28;656533;-85
2022/09/28 03:39:51;;;;;;;16.30;8.33;;;6.50;99.90;;;;;;4345371;28;656528;-85
2022/09/28 03:42:42;;;;;;;14.63;8.10;;;6.40;99.90;;;;;;4369064;28;657282;-85
2022/09/28 03:45:29;;;;;;;16.50;8.30;;;6.40;99.90;;;;;;4344684;28;656653;-85
2022/09/28 03:48:16;;;;;;;12.73;8.00;;;6.30;99.90;;;;;;4357280;28;656540;-85
2022/09/28 03:51:05;;;;;;;13.17;7.97;;;6.20;99.90;;;;;;4373967;28;657065;-85
2022/09/28 03:53:53;;;;;;;13.03;8.00;;;6.10;99.90;;;;;;4354889;28;657527;-85
2022/09/28 03:56:40;;;;;;;12.43;6.93;;;6.10;99.90;;;;;;4364253;28;656446;-85
2022/09/28 03:59:29;;;;;;;12.60;7.33;;;6.00;99.90;;;;;;4377669;28;656825;-85
2022/09/28 04:02:16;;;;;;;10.97;6.87;;;6.00;99.90;;;;;;4351061;28;656880;-86
2022/09/28 04:05:04;;;;;;;11.83;6.80;;;6.00;99.90;;;;;;4374412;28;657614;-85
2022/09/28 04:07:52;;;;;;;12.47;6.17;;;6.00;99.90;;;;;;4354565;28;656459;-85
2022/09/28 04:10:39;;;;;;;9.23;6.20;;;6.00;99.90;;;;;;4375886;28;656305;-85
2022/09/28 04:13:27;;;;;;;14.67;7.80;;;6.10;99.90;;;;;;4355013;28;655719;-85
2022/09/28 04:16:16;;;;;;;13.00;7.07;;;6.10;99.90;;;;;;4375082;28;657129;-85
2022/09/28 04:19:03;;;;;;;15.43;8.93;;;6.10;99.90;;;;;;4356917;28;657078;-84
2022/09/28 04:21:50;;;;;;;14.13;8.73;;;6.10;99.90;;;;;;4357804;28;656679;-85
2022/09/28 04:24:38;;;;;;;14.90;8.30;;;6.20;99.90;;;;;;4370535;28;657679;-85
2022/09/28 04:30:30;;;;;;;20.08;10.68;;;6.30;99.90;;;;;;4361274;28;656906;-84
2022/09/28 04:33:19;;;;;;;17.07;9.87;;;6.40;99.90;;;;;;4370439;28;657975;-85
2022/09/28 04:36:08;;;;;;;15.83;10.37;;;6.50;99.90;;;;;;4351846;28;656409;-84
2022/09/28 04:38:55;;;;;;;19.03;11.57;;;6.50;99.90;;;;;;4357969;28;657904;-85
2022/09/28 04:41:42;;;;;;;15.37;9.77;;;6.60;99.90;;;;;;4370085;28;657515;-88
2022/09/28 04:44:29;;;;;;;14.03;9.30;;;6.50;99.90;;;;;;4375492;28;656354;-85
2022/09/28 04:47:16;;;;;;;16.23;10.33;;;6.50;99.90;;;;;;4354554;28;656579;-86
2022/09/28 04:50:06;;;;;;;16.33;9.50;;;6.40;99.90;;;;;;4371530;28;657734;-86
2022/09/28 04:52:53;;;;;;;10.37;6.53;;;6.50;99.90;;;;;;4340813;28;657593;-85
2022/09/28 04:55:40;;;;;;;17.73;10.55;;;6.70;99.90;;;;;;4348374;28;657016;-85
2022/09/28 04:58:28;;;;;;;16.63;9.57;;;6.70;99.90;;;;;;4345201;28;658207;-86
2022/09/28 05:01:16;;;;;;;16.35;10.32;;;6.70;99.90;;;;;;4354407;28;656329;-85
2022/09/28 05:04:04;;;;;;;16.47;11.33;;;6.70;99.90;;;;;;4374847;28;658306;-87
2022/09/28 05:06:52;;;;;;;24.17;10.40;;;6.70;99.90;;;;;;4356512;28;657591;-85
2022/09/28 05:09:39;;;;;;;24.20;13.90;;;6.60;99.90;;;;;;4366416;28;657630;-86
2022/09/28 05:12:26;;;;;;;24.60;15.40;;;6.70;99.90;;;;;;4341337;28;657983;-86
2022/09/28 05:15:13;;;;;;;24.20;15.87;;;6.80;99.90;;;;;;4374122;28;657924;-85
2022/09/28 05:18:01;;;;;;;24.97;17.20;;;6.90;99.90;;;;;;4352695;28;657625;-85
2022/09/28 05:20:48;;;;;;;25.57;17.47;;;7.10;99.90;;;;;;4361874;28;658502;-85
2022/09/28 05:23:36;;;;;;;24.45;17.40;;;7.30;99.90;;;;;;4352737;28;657651;-85
2022/09/28 05:26:24;;;;;;;28.03;15.40;;;7.40;99.90;;;;;;4377310;28;657730;-86
2022/09/28 05:29:11;;;;;;;23.53;14.53;;;7.50;99.90;;;;;;4348825;28;657594;-86
2022/09/28 05:32:00;;;;;;;24.23;12.47;;;7.60;99.90;;;;;;4373579;28;657414;-85
2022/09/28 05:34:47;;;;;;;16.73;11.17;;;7.60;99.90;;;;;;4351826;28;658629;-86
2022/09/28 05:37:35;;;;;;;17.50;10.67;;;7.60;99.90;;;;;;4376747;28;657757;-85
2022/09/28 05:40:23;;;;;;;14.53;9.83;;;7.50;99.90;;;;;;4350615;28;658083;-85
2022/09/28 05:43:11;;;;;;;17.37;9.40;;;7.60;99.90;;;;;;4357464;28;656409;-84
2022/09/28 05:45:59;;;;;;;16.00;9.50;;;7.60;99.90;;;;;;4377673;28;656473;-84
2022/09/28 05:48:46;;;;;;;13.70;8.17;;;7.60;99.90;;;;;;4357624;28;656598;-83
2022/09/28 05:51:33;;;;;;;17.70;8.30;;;7.70;99.90;;;;;;4372072;28;657009;-83
2022/09/28 05:54:20;;;;;;;13.27;8.13;;;7.70;99.90;;;;;;4356311;28;656708;-82
2022/09/28 05:57:09;;;;;;;14.57;8.43;;;7.80;99.90;;;;;;4375997;28;656262;-83
2022/09/28 05:59:56;;;;;;;17.67;8.07;;;7.80;99.90;;;;;;4351550;28;656837;-83
2022/09/28 06:02:43;;;;;;;16.07;7.93;;;7.90;99.90;;;;;;4382407;28;656887;-83
2022/09/28 06:05:31;;;;;;;14.10;7.82;;;7.90;99.90;;;;;;4360973;28;656930;-83
2022/09/28 06:08:18;;;;;;;13.93;7.80;;;7.90;99.90;;;;;;4377819;28;657446;-83
2022/09/28 06:11:05;;;;;;;13.00;7.88;;;8.00;99.90;;;;;;4366440;28;656686;-84
2022/09/28 06:13:55;;;;;;;15.63;8.13;;;8.20;99.90;;;;;;4355453;28;657589;-84
2022/09/28 06:16:42;;;;;;;15.90;8.67;;;8.30;99.90;;;;;;4341540;28;657336;-83
2022/09/28 06:19:29;;;;;;;17.27;8.83;;;8.40;99.90;;;;;;4381095;28;656213;-84
2022/09/28 06:22:16;;;;;;;13.23;8.47;;;8.40;99.90;;;;;;4353346;28;656532;-84
2022/09/28 06:25:04;;;;;;;14.47;8.70;;;8.30;99.90;;;;;;4370970;28;657467;-84
2022/09/28 06:27:55;;;;;;;17.93;9.97;;;8.40;99.90;;;;;;4352793;28;656740;-83
2022/09/28 06:30:44;;;;;;;20.30;12.40;;;8.40;99.90;;;;;;4350060;28;656643;-84
2022/09/28 06:33:31;;;;;;;19.07;12.30;;;8.50;99.90;;;;;;4349815;28;657665;-82
2022/09/28 06:36:19;;;;;;;25.77;16.50;;;8.40;99.90;;;;;;4379279;28;657941;-82
2022/09/28 06:39:06;;;;;;;22.83;15.63;;;8.40;99.90;;;;;;4343653;28;657571;-82
2022/09/28 06:41:54;;;;;;;24.10;16.00;;;8.60;99.90;;;;;;4362889;28;657914;-83
2022/09/28 06:44:41;;;;;;;20.77;13.20;;;8.50;99.90;;;;;;4355082;28;658133;-83
2022/09/28 06:47:30;;;;;;;17.95;10.73;;;8.60;99.90;;;;;;4374266;28;658555;-83
2022/09/28 06:50:18;;;;;;;17.37;11.50;;;8.80;99.90;;;;;;4344636;28;658096;-83
2022/09/28 06:53:06;;;;;;;21.75;11.50;;;8.90;99.90;;;;;;4352076;28;658238;-83
2022/09/28 06:55:53;;;;;;;19.70;11.63;;;9.30;99.90;;;;;;4384534;28;658172;-84
2022/09/28 06:58:40;;;;;;;14.60;9.63;;;9.40;99.90;;;;;;4353288;28;657615;-83
2022/09/28 07:01:27;;;;;;;14.17;9.13;;;9.30;99.90;;;;;;4376937;28;656658;-83
2022/09/28 07:04:16;;;;;;;20.40;8.47;;;9.10;99.90;;;;;;4360688;28;656434;-83
2022/09/28 07:07:03;;;;;;;13.23;8.40;;;9.00;99.90;;;;;;4339882;28;657062;-83
2022/09/28 07:09:53;;;;;;;12.63;8.53;;;9.00;99.90;;;;;;4358234;28;657432;-84
2022/09/28 07:12:40;;;;;;;11.80;7.13;;;9.30;99.90;;;;;;4346774;28;656671;-83
2022/09/28 07:15:28;;;;;;;9.03;4.83;;;9.60;99.90;;;;;;4373398;28;657334;-83
2022/09/28 07:18:16;;;;;;;8.37;3.77;;;9.80;99.90;;;;;;4351411;28;655388;-83
2022/09/28 07:21:06;;;;;;;7.43;3.67;;;9.70;99.90;;;;;;4369356;28;656055;-83
2022/09/28 07:23:53;;;;;;;6.40;4.00;;;10.10;99.90;;;;;;4344265;28;656368;-83
2022/09/28 07:26:40;;;;;;;5.30;3.53;;;10.40;99.90;;;;;;4344035;28;657443;-83
2022/09/28 07:29:27;;;;;;;8.57;4.27;;;10.20;99.90;;;;;;4380109;28;656883;-83
2022/09/28 07:32:14;;;;;;;6.37;4.00;;;10.30;99.90;;;;;;4374377;28;656275;-83
2022/09/28 07:35:03;;;;;;;4.40;2.47;;;10.20;99.90;;;;;;4351795;28;657140;-83
2022/09/28 07:37:59;;;;;;;4.93;2.60;;;10.20;99.90;;;;;;4348518;28;657178;-83
2022/09/28 07:43:51;;;;;;;8.20;2.83;;;10.70;99.90;;;;;;4357429;28;657507;-83
2022/09/28 07:46:38;;;;;;;4.10;2.40;;;10.70;99.90;;;;;;4377773;28;657131;-83
2022/09/28 07:49:25;;;;;;;4.53;1.73;;;11.00;99.90;;;;;;4357355;28;656647;-83
2022/09/28 07:52:12;;;;;;;3.42;1.90;;;11.30;99.90;;;;;;4354940;28;656261;-83
2022/09/28 07:55:01;;;;;;;3.17;2.10;;;11.40;99.90;;;;;;4357512;28;655974;-83
2022/09/28 07:57:54;;;;;;;3.80;1.77;;;11.40;99.90;;;;;;4330366;28;657280;-84
2022/09/28 08:00:41;;;;;;;3.23;1.50;;;11.20;99.90;;;;;;4351005;28;656484;-82
2022/09/28 08:03:28;;;;;;;1.47;0.93;;;11.50;99.90;;;;;;4372018;28;657357;-83
2022/09/28 08:06:16;;;;;;;4.03;1.35;;;11.60;99.90;;;;;;4336670;28;656610;-84
2022/09/28 08:09:03;;;;;;;3.00;1.57;;;11.40;99.90;;;;;;4363158;28;656570;-84
2022/09/28 08:11:52;;;;;;;3.40;1.53;;;11.90;99.90;;;;;;4351785;28;657009;-82
2022/09/28 08:14:39;;;;;;;2.73;1.30;;;11.80;99.90;;;;;;4369364;28;656454;-84
2022/09/28 08:17:26;;;;;;;6.27;1.27;;;12.00;99.90;;;;;;4350864;28;656601;-83
2022/09/28 08:23:19;;;;;;;2.50;0.70;;;12.00;99.90;;;;;;4356000;28;656822;-83
2022/09/28 08:26:06;;;;;;;2.45;0.90;;;12.10;99.90;;;;;;4348152;28;656670;-82
2022/09/28 08:28:54;;;;;;;1.47;0.60;;;11.60;99.90;;;;;;4373558;28;656350;-83
2022/09/28 08:31:41;;;;;;;1.70;1.00;;;11.60;99.90;;;;;;4351038;28;656764;-83
2022/09/28 08:34:29;;;;;;;5.30;1.43;;;11.30;99.90;;;;;;4369694;28;657090;-83
2022/09/28 08:37:16;;;;;;;2.97;0.93;;;11.40;99.90;;;;;;4347144;28;656555;-83
2022/09/28 08:40:03;;;;;;;1.93;1.30;;;11.20;99.90;;;;;;4377230;28;657116;-83
2022/09/28 08:42:52;;;;;;;4.50;1.10;;;11.00;99.90;;;;;;4353041;28;657658;-83
2022/09/28 08:45:40;;;;;;;2.77;1.10;;;11.10;99.90;;;;;;4375626;28;656901;-83
2022/09/28 08:48:47;;;;;;;3.80;1.73;;;11.00;99.90;;;;;;4343852;28;657327;-83
2022/09/28 08:51:35;;;;;;;1.97;1.20;;;11.10;99.90;;;;;;4336860;28;656796;-84
2022/09/28 08:54:33;;;;;;;4.47;2.00;;;11.00;99.90;;;;;;4345212;28;657114;-83
2022/09/28 08:57:22;;;;;;;3.37;2.50;;;11.10;99.90;;;;;;4351107;28;656729;-84
2022/09/28 09:00:14;;;;;;;3.87;1.90;;;11.60;99.90;;;;;;4365370;28;657596;-83
2022/09/28 09:03:05;;;;;;;3.27;1.00;;;11.60;99.90;;;;;;4349974;28;657089;-83
2022/09/28 09:05:56;;;;;;;1.03;0.80;;;12.10;99.90;;;;;;4328764;28;657285;-83
2022/09/28 09:08:48;;;;;;;3.60;1.07;;;12.10;99.90;;;;;;4339243;28;656606;-83
2022/09/28 09:11:45;;;;;;;1.57;1.07;;;11.70;99.90;;;;;;4335861;28;656875;-83
2022/09/28 09:14:53;;;;;;;1.80;0.83;;;11.60;99.90;;;;;;4332782;28;656695;-83
2022/09/28 09:17:48;;;;;;;2.67;1.07;;;11.40;99.90;;;;;;4332950;28;656765;-83
2022/09/28 09:20:41;;;;;;;2.30;0.80;;;12.10;99.90;;;;;;4333892;28;656852;-84
2022/09/28 09:23:34;;;;;;;0.90;0.60;;;12.40;99.90;;;;;;4341380;28;657474;-84
2022/09/28 09:26:24;;;;;;;2.43;0.90;;;12.60;99.90;;;;;;4358747;28;656320;-84
2022/09/28 09:29:18;;;;;;;3.77;1.30;;;12.50;99.90;;;;;;4357188;28;656496;-84
2022/09/28 09:32:13;;;;;;;1.10;0.57;;;12.60;99.90;;;;;;4334538;28;657077;-84
2022/09/28 09:35:21;;;;;;;1.23;0.60;;;13.40;99.90;;;;;;4336608;28;656799;-83
2022/09/28 09:38:27;;;;;;;1.00;0.53;;;13.60;99.90;;;;;;4348659;28;657014;-84
2022/09/28 09:41:20;;;;;;;6.33;0.50;;;13.90;99.90;;;;;;4351102;28;656304;-85
2022/09/28 09:44:25;;;;;;;0.80;0.60;;;14.10;99.90;;;;;;4350872;28;656774;-84
2022/09/28 09:47:14;;;;;;;2.37;0.53;;;13.70;99.90;;;;;;4355182;28;656657;-84
2022/09/28 09:50:03;;;;;;;2.57;0.67;;;13.30;99.90;;;;;;4363877;28;657002;-84
2022/09/28 09:52:53;;;;;;;1.03;0.53;;;13.40;99.90;;;;;;4355894;28;656880;-84
2022/09/28 09:55:43;;;;;;;5.80;0.50;;;13.50;99.90;;;;;;4346546;28;656618;-84
2022/09/28 09:58:31;;;;;;;2.90;1.00;;;12.80;99.90;;;;;;4357234;28;656691;-84
2022/09/28 10:01:19;;;;;;;1.77;0.95;;;13.00;99.90;;;;;;4378058;28;657463;-84
2022/09/28 10:04:11;;;;;;;2.27;0.80;;;13.30;99.90;;;;;;4360191;28;656554;-83
2022/09/28 10:07:01;;;;;;;1.53;0.67;;;13.90;99.90;;;;;;4358064;28;657103;-84
2022/09/28 10:09:48;;;;;;;1.97;0.77;;;13.40;99.90;;;;;;4350291;28;657234;-85
2022/09/28 10:12:36;;;;;;;0.50;0.50;;;13.80;99.90;;;;;;4362490;28;656702;-84
2022/09/28 10:15:25;;;;;;;0.93;0.70;;;14.10;99.90;;;;;;4366015;28;657071;-84
2022/09/28 10:18:13;;;;;;;0.50;0.50;;;14.70;99.90;;;;;;4352894;28;657402;-86
2022/09/28 10:21:00;;;;;;;2.30;0.40;;;15.40;99.90;;;;;;4359840;28;656567;-85
2022/09/28 10:23:48;;;;;;;1.13;0.60;;;15.30;99.30;;;;;;4377805;28;656722;-85
2022/09/28 10:26:37;;;;;;;1.43;0.70;;;15.00;99.90;;;;;;4352036;28;656353;-84
2022/09/28 10:29:26;;;;;;;1.53;0.60;;;15.10;99.90;;;;;;4378195;28;656223;-85
2022/09/28 10:32:21;;;;;;;1.43;0.63;;;15.40;98.90;;;;;;4356648;28;656615;-86
2022/09/28 10:35:22;;;;;;;1.93;0.73;;;15.10;97.90;;;;;;4360167;28;657417;-85
2022/09/28 10:38:14;;;;;;;2.60;0.80;;;15.20;97.20;;;;;;4340819;28;657146;-86
2022/09/28 10:41:02;;;;;;;0.80;0.57;;;15.10;97.10;;;;;;4353045;28;656658;-85
2022/09/28 10:44:04;;;;;;;1.67;0.60;;;15.20;99.90;;;;;;4374476;28;656903;-86
2022/09/28 10:47:01;;;;;;;0.80;0.70;;;15.80;98.90;;;;;;4356371;28;657219;-87
2022/09/28 10:49:49;;;;;;;1.90;0.53;;;15.60;95.10;;;;;;4350832;28;656708;-84
2022/09/28 10:52:38;;;;;;;0.70;0.53;;;15.90;94.80;;;;;;4344255;28;656920;-85
2022/09/28 10:55:28;;;;;;;1.50;0.60;;;16.70;96.00;;;;;;4356831;28;656794;-84
2022/09/28 10:58:24;;;;;;;1.17;0.60;;;16.80;93.00;;;;;;4365042;28;657004;-84
2022/09/28 11:01:13;;;;;;;1.80;0.70;;;16.60;92.70;;;;;;4361351;28;656783;-84
2022/09/28 11:04:02;;;;;;;0.70;0.60;;;15.70;93.40;;;;;;4358872;28;656574;-85
2022/09/28 11:06:50;;;;;;;1.90;0.60;;;14.80;93.50;;;;;;4357129;28;657115;-85
2022/09/28 11:09:40;;;;;;;3.78;0.68;;;15.20;96.60;;;;;;4367304;28;656433;-86
2022/09/28 11:12:35;;;;;;;1.83;0.70;;;15.40;95.20;;;;;;4342520;28;656882;-85
2022/09/28 11:15:24;;;;;;;4.03;0.80;;;15.70;95.80;;;;;;4333170;28;656932;-86
2022/09/28 11:18:25;;;;;;;3.50;0.77;;;15.80;94.50;;;;;;4352697;28;656418;-84
2022/09/28 11:21:16;;;;;;;2.37;0.80;;;16.00;94.20;;;;;;4342678;28;657095;-85
2022/09/28 11:24:07;;;;;;;1.37;0.60;;;15.80;95.50;;;;;;4335301;28;657303;-85
2022/09/28 11:26:55;;;;;;;0.80;0.70;;;16.10;94.70;;;;;;4355269;28;657043;-86
2022/09/28 11:29:43;;;;;;;0.80;0.60;;;16.70;92.40;;;;;;4355860;28;657868;-85
2022/09/28 11:32:32;;;;;;;2.30;0.73;;;16.90;94.50;;;;;;4365952;28;656851;-85
2022/09/28 11:35:21;;;;;;;4.10;0.60;;;17.70;92.70;;;;;;4383948;28;656311;-84
2022/09/28 11:38:18;;;;;;;0.87;0.70;;;17.70;91.20;;;;;;4350396;28;657292;-85
2022/09/28 11:41:32;;;;;;;1.70;0.60;;;17.30;90.60;;;;;;4345415;28;656768;-85
2022/09/28 11:44:38;;;;;;;1.37;0.80;;;16.00;91.50;;;;;;4349005;28;657189;-85
2022/09/28 11:47:47;;;;;;;0.70;0.67;;;15.80;93.60;;;;;;4353863;28;656936;-85
2022/09/28 11:50:41;;;;;;;0.87;0.67;;;16.00;95.40;;;;;;4354277;28;656739;-85
2022/09/28 11:53:30;;;;;;;1.40;0.80;;;17.00;93.60;;;;;;4342214;28;657074;-84
2022/09/28 11:56:21;;;;;;;0.80;0.70;;;16.60;92.90;;;;;;4344426;28;657055;-84
2022/09/28 11:59:11;;;;;;;2.70;0.80;;;17.20;93.70;;;;;;4352895;28;656902;-84
2022/09/28 12:02:00;;;;;;;1.37;0.60;;;17.70;92.20;;;;;;4343957;28;656507;-85
2022/09/28 12:04:48;;;;;;;2.30;0.70;;;18.20;91.50;;;;;;4344647;28;657218;-85
2022/09/28 12:07:37;;;;;;;1.53;0.70;;;18.40;86.50;;;;;;4326728;28;656865;-85
2022/09/28 12:10:32;;;;;;;1.17;0.40;;;18.00;90.30;;;;;;4372183;28;656182;-84
2022/09/28 12:13:21;;;;;;;2.43;0.77;;;17.20;85.80;;;;;;4343801;28;656598;-84
2022/09/28 12:16:09;;;;;;;1.93;0.70;;;16.00;91.50;;;;;;4337466;28;657018;-84
2022/09/28 12:18:58;;;;;;;1.80;0.90;;;15.70;92.30;;;;;;4349232;28;657028;-84
2022/09/28 12:21:50;;;;;;;3.07;0.80;;;15.30;94.10;;;;;;4345620;28;656571;-84
2022/09/28 12:24:38;;;;;;;4.00;0.80;;;15.40;94.40;;;;;;4330067;28;657029;-85
2022/09/28 12:27:28;;;;;;;2.42;0.90;;;15.40;96.10;;;;;;4352790;28;656571;-84
2022/09/28 12:30:18;;;;;;;2.03;1.00;;;15.80;94.50;;;;;;4361751;28;656903;-84
2022/09/28 12:33:08;;;;;;;1.60;0.90;;;16.20;98.60;;;;;;4352962;28;656334;-84
2022/09/28 12:36:02;;;;;;;2.10;0.97;;;16.70;95.80;;;;;;4363028;28;656381;-84
2022/09/28 12:38:58;;;;;;;3.60;0.83;;;16.80;96.30;;;;;;4352001;28;657145;-84
2022/09/28 12:41:51;;;;;;;2.33;0.87;;;16.40;94.20;;;;;;4352011;28;656216;-85
2022/09/28 12:44:51;;;;;;;6.23;1.03;;;16.10;94.90;;;;;;4360642;28;656640;-85
2022/09/28 12:47:50;;;;;;;7.13;1.13;;;16.40;95.70;;;;;;4348331;28;657199;-84
2022/09/28 12:50:39;;;;;;;2.00;0.87;;;16.40;95.40;;;;;;4344992;28;656438;-84
2022/09/28 12:53:37;;;;;;;3.13;0.70;;;16.40;95.30;;;;;;4356252;28;656617;-85
2022/09/28 12:56:26;;;;;;;1.53;0.80;;;16.40;98.20;;;;;;4350110;28;656568;-84
2022/09/28 12:59:18;;;;;;;4.83;0.97;;;16.50;97.70;;;;;;4350704;28;656724;-85
2022/09/28 13:02:25;;;;;;;1.80;0.80;;;16.30;95.50;;;;;;4320117;28;657422;-84
2022/09/28 13:05:20;;;;;;;3.72;0.80;;;16.30;95.40;;;;;;4343852;28;656489;-85
2022/09/28 13:08:08;;;;;;;2.90;0.90;;;15.90;97.70;;;;;;4344302;28;656678;-85
2022/09/28 13:11:01;;;;;;;1.97;0.50;;;15.60;97.00;;;;;;4329881;28;656916;-84
2022/09/28 13:13:53;;;;;;;2.30;0.67;;;15.30;95.00;;;;;;4334234;28;657425;-84
2022/09/28 13:16:42;;;;;;;1.93;0.80;;;14.90;96.50;;;;;;4323991;28;656958;-84
2022/09/28 13:19:33;;;;;;;2.10;0.90;;;14.60;98.20;;;;;;4361322;28;656673;-85
2022/09/28 13:22:26;;;;;;;4.23;0.80;;;14.60;99.90;;;;;;4335179;28;657160;-83
2022/09/28 13:25:15;;;;;;;1.60;0.90;;;14.70;99.60;;;;;;4334907;28;656909;-84
2022/09/28 13:28:04;;;;;;;3.33;1.17;;;14.70;99.60;;;;;;4351518;28;656972;-83
2022/09/28 13:30:51;;;;;;;1.73;0.80;;;14.80;99.90;;;;;;4330875;28;656523;-83
2022/09/28 13:33:39;;;;;;;2.80;0.90;;;14.90;99.90;;;;;;4360763;28;656936;-84
2022/09/28 13:36:36;;;;;;;1.67;0.80;;;14.90;99.70;;;;;;4346361;28;656293;-85
2022/09/28 13:39:37;;;;;;;2.57;0.80;;;14.60;99.90;;;;;;4343991;28;656445;-84
2022/09/28 13:42:31;;;;;;;1.57;0.80;;;14.70;99.90;;;;;;4358443;28;656875;-84
2022/09/28 13:45:26;;;;;;;1.53;0.70;;;14.50;99.90;;;;;;4335627;28;657191;-84
2022/09/28 13:48:14;;;;;;;2.57;0.70;;;14.70;99.90;;;;;;4344451;28;656870;-83
2022/09/28 13:51:09;;;;;;;1.67;0.70;;;14.50;99.90;;;;;;4344448;28;657136;-83
2022/09/28 13:54:12;;;;;;;1.20;0.90;;;14.50;99.90;;;;;;4342727;28;656790;-83
2022/09/28 13:57:03;;;;;;;1.27;0.80;;;14.50;99.90;;;;;;4336005;28;656867;-83
2022/09/28 14:00:13;;;;;;;1.80;0.80;;;14.30;99.90;;;;;;4347518;28;656505;-83
2022/09/28 14:03:10;;;;;;;1.00;0.70;;;14.40;99.90;;;;;;4364816;28;656489;-83
2022/09/28 14:06:06;;;;;;;2.20;0.70;;;14.20;99.90;;;;;;4356269;28;656839;-83
2022/09/28 14:09:22;;;;;;;3.10;0.83;;;14.10;99.90;;;;;;4352159;28;657458;-83
2022/09/28 14:12:31;;;;;;;1.23;0.70;;;14.10;99.90;;;;;;4338062;28;656283;-83
2022/09/28 14:15:40;;;;;;;2.40;0.80;;;14.00;99.90;;;;;;4351668;28;656733;-84
2022/09/28 14:18:28;;;;;;;1.33;0.80;;;13.80;99.90;;;;;;4356412;28;656863;-83
2022/09/28 14:21:54;;;;;;;3.00;0.90;;;13.60;99.90;;;;;;4354301;28;656503;-84
2022/09/28 14:25:05;;;;;;;2.17;1.00;;;13.60;99.90;;;;;;4347201;28;656630;-84
2022/09/28 14:28:03;;;;;;;7.40;0.90;;;13.70;99.90;;;;;;4347627;28;656916;-84
2022/09/28 14:30:52;;;;;;;1.77;0.90;;;13.70;99.90;;;;;;4335016;28;656908;-84
2022/09/28 14:33:41;;;;;;;5.20;1.17;;;13.70;99.90;;;;;;4372562;28;656887;-84
2022/09/28 14:42:44;;;;;;;5.10;1.20;;;13.80;99.90;;;;;;4350621;28;656458;-84
2022/09/28 14:45:37;;;;;;;2.90;1.30;;;14.00;99.90;;;;;;4357706;28;656540;-84
2022/09/28 14:48:43;;;;;;;3.27;1.40;;;13.80;99.90;;;;;;4343852;28;656122;-84
2022/09/28 14:51:59;;;;;;;4.30;1.70;;;13.80;99.90;;;;;;4345884;28;656438;-84